Time;durP1;ratioP1;P1;durP2;ratioP2;P2;SDS_P1;SDS_P2;PMS_P1;PMS_P2;Temp;Humidity;BMP_temperature;BMP_pressure;BME280_temperature;BME280_humidity;BME280_pressure;Samples;Min_cycle;Max_cycle;Signal;HPM_P1;HPM_P2
2023/07/22 00:00:55;;;;;;;28.70;25.75;;;13.70;99.90;;;;;;5014505;28;20030;-81
2023/07/22 00:03:22;;;;;;;30.98;28.35;;;13.60;99.90;;;;;;5032737;28;20034;-82
2023/07/22 00:05:48;;;;;;;29.60;26.75;;;13.80;99.90;;;;;;5031265;28;20048;-81
2023/07/22 00:08:14;;;;;;;27.73;25.08;;;13.90;99.90;;;;;;5031226;28;20033;-81
2023/07/22 00:10:43;;;;;;;29.33;26.42;;;13.70;99.90;;;;;;5031139;28;20084;-82
2023/07/22 00:13:08;;;;;;;29.45;26.67;;;13.80;99.90;;;;;;5032361;28;20034;-81
2023/07/22 00:15:34;;;;;;;29.42;25.33;;;13.80;99.90;;;;;;5030632;28;20083;-81
2023/07/22 00:18:00;;;;;;;25.25;23.00;;;13.90;99.90;;;;;;5014352;28;20144;-80
2023/07/22 00:20:26;;;;;;;24.63;22.30;;;13.90;99.90;;;;;;5031008;28;20143;-81
2023/07/22 00:22:52;;;;;;;28.70;26.23;;;13.80;99.90;;;;;;5032291;28;20117;-81
2023/07/22 00:25:18;;;;;;;23.50;21.20;;;13.80;99.90;;;;;;5030921;28;20053;-81
2023/07/22 00:27:43;;;;;;;25.25;22.73;;;13.80;99.90;;;;;;5030864;28;20052;-81
2023/07/22 00:30:09;;;;;;;26.33;24.05;;;13.70;99.90;;;;;;5014031;28;20484;-81
2023/07/22 00:32:39;;;;;;;29.10;26.67;;;13.60;99.90;;;;;;5030810;28;20041;-81
2023/07/22 00:35:05;;;;;;;26.95;24.48;;;13.60;99.90;;;;;;5031793;28;20522;-81
2023/07/22 00:37:32;;;;;;;26.00;23.23;;;13.50;99.90;;;;;;5030889;28;20403;-81
2023/07/22 00:39:57;;;;;;;27.77;25.55;;;13.40;99.90;;;;;;5031205;28;20450;-81
2023/07/22 00:42:23;;;;;;;23.05;21.02;;;13.40;99.90;;;;;;5030225;28;20120;-81
2023/07/22 00:44:50;;;;;;;26.98;24.50;;;13.50;99.90;;;;;;5030942;28;20045;-81
2023/07/22 00:47:17;;;;;;;25.33;23.05;;;13.30;99.90;;;;;;5030647;28;20128;-81
2023/07/22 00:49:43;;;;;;;28.75;26.27;;;13.20;99.90;;;;;;5014193;28;20120;-82
2023/07/22 00:52:09;;;;;;;25.25;22.80;;;13.20;99.90;;;;;;5030199;28;20083;-81
2023/07/22 00:54:34;;;;;;;34.03;31.00;;;13.20;99.90;;;;;;5030436;28;20076;-82
2023/07/22 00:57:00;;;;;;;26.73;24.42;;;13.20;99.90;;;;;;5031411;28;20100;-81
2023/07/22 00:59:26;;;;;;;28.00;25.42;;;13.10;99.90;;;;;;5030555;28;20124;-82
2023/07/22 01:01:52;;;;;;;30.23;27.63;;;13.10;99.90;;;;;;5032120;28;20041;-81
2023/07/22 01:04:20;;;;;;;26.23;23.90;;;13.10;99.90;;;;;;5030320;28;20192;-81
2023/07/22 01:06:46;;;;;;;29.02;26.48;;;13.10;99.90;;;;;;5030475;28;20491;-81
2023/07/22 01:09:13;;;;;;;27.00;24.60;;;13.10;99.90;;;;;;5030556;28;20037;-81
2023/07/22 01:11:39;;;;;;;28.55;25.77;;;13.10;99.90;;;;;;5029717;28;20084;-81
2023/07/22 01:14:04;;;;;;;29.38;26.73;;;13.00;99.90;;;;;;5030400;28;20077;-81
2023/07/22 01:16:30;;;;;;;23.92;21.40;;;13.00;99.90;;;;;;5030451;28;20045;-81
2023/07/22 01:18:57;;;;;;;26.90;24.13;;;13.00;99.90;;;;;;5031427;28;20061;-81
2023/07/22 01:21:27;;;;;;;26.95;24.27;;;13.20;99.90;;;;;;5030195;28;20046;-81
2023/07/22 01:23:53;;;;;;;25.23;22.70;;;12.90;99.90;;;;;;5013749;28;20171;-81
2023/07/22 01:26:19;;;;;;;29.08;26.60;;;12.90;99.90;;;;;;5029684;28;20045;-81
2023/07/22 01:28:45;;;;;;;29.73;26.92;;;12.90;99.90;;;;;;5030121;28;20041;-81
2023/07/22 01:31:11;;;;;;;25.45;22.88;;;12.90;99.90;;;;;;5030430;28;20044;-81
2023/07/22 01:33:37;;;;;;;28.65;22.08;;;13.00;99.90;;;;;;5030192;28;20041;-81
2023/07/22 01:36:04;;;;;;;24.52;22.13;;;13.00;99.90;;;;;;5013600;28;20038;-81
2023/07/22 01:38:31;;;;;;;25.75;23.38;;;12.90;99.90;;;;;;5013769;28;20042;-81
2023/07/22 01:40:57;;;;;;;28.52;26.02;;;13.10;99.90;;;;;;5029522;28;20048;-81
2023/07/22 01:43:22;;;;;;;27.10;24.42;;;12.90;99.90;;;;;;5013818;28;20046;-81
2023/07/22 01:45:48;;;;;;;30.85;28.35;;;12.70;99.90;;;;;;5029940;28;20056;-81
2023/07/22 01:48:14;;;;;;;28.15;25.58;;;12.90;99.90;;;;;;5030280;28;20099;-81
2023/07/22 01:50:39;;;;;;;29.15;26.17;;;12.50;99.90;;;;;;5013547;28;20129;-81
2023/07/22 01:53:05;;;;;;;29.10;26.42;;;12.50;99.90;;;;;;5030132;28;20048;-81
2023/07/22 01:55:32;;;;;;;27.13;24.65;;;12.40;99.90;;;;;;5029262;28;20029;-81
2023/07/22 01:57:58;;;;;;;23.33;20.88;;;12.30;99.90;;;;;;5030145;28;20092;-81
2023/07/22 02:00:24;;;;;;;26.02;23.63;;;12.30;99.90;;;;;;5030059;28;20041;-80
2023/07/22 02:02:49;;;;;;;27.30;24.45;;;12.20;99.90;;;;;;5014674;28;20075;-81
2023/07/22 02:05:15;;;;;;;27.48;24.73;;;12.20;99.90;;;;;;5034874;28;20042;-81
2023/07/22 02:07:41;;;;;;;28.02;25.45;;;12.10;99.90;;;;;;5017276;28;20042;-81
2023/07/22 02:10:08;;;;;;;27.20;24.83;;;12.00;99.90;;;;;;5033269;28;20037;-81
2023/07/22 02:12:34;;;;;;;30.95;28.10;;;12.00;99.90;;;;;;5033447;28;20116;-81
2023/07/22 02:14:59;;;;;;;29.83;26.85;;;11.90;99.90;;;;;;5016798;28;20480;-81
2023/07/22 02:17:25;;;;;;;30.88;27.95;;;11.90;99.90;;;;;;5033387;28;20102;-81
2023/07/22 02:19:51;;;;;;;31.48;28.75;;;11.90;99.90;;;;;;5016837;28;20045;-81
2023/07/22 02:22:17;;;;;;;29.33;26.77;;;11.80;99.90;;;;;;5033423;28;20128;-81
2023/07/22 02:24:43;;;;;;;30.30;27.48;;;11.80;99.90;;;;;;5033934;28;20052;-81
2023/07/22 02:27:08;;;;;;;31.67;28.55;;;11.80;99.90;;;;;;5016713;28;20041;-81
2023/07/22 02:29:34;;;;;;;32.65;29.77;;;11.80;99.90;;;;;;5016619;28;20037;-81
2023/07/22 02:32:01;;;;;;;31.50;28.80;;;11.70;99.90;;;;;;5033722;28;20053;-81
2023/07/22 02:34:26;;;;;;;34.05;31.25;;;11.70;99.90;;;;;;5034547;28;20045;-82
2023/07/22 02:36:52;;;;;;;34.20;31.25;;;11.60;99.90;;;;;;5033224;28;20561;-81
2023/07/22 02:39:18;;;;;;;35.78;32.63;;;11.60;99.90;;;;;;5016170;28;20110;-81
2023/07/22 02:41:43;;;;;;;34.53;31.42;;;11.60;99.90;;;;;;5016505;28;20041;-81
2023/07/22 02:44:09;;;;;;;28.75;26.23;;;11.50;99.90;;;;;;5033074;28;20041;-81
2023/07/22 02:46:35;;;;;;;35.17;31.95;;;11.50;99.90;;;;;;5016478;28;20040;-81
2023/07/22 02:49:00;;;;;;;31.27;28.35;;;11.50;99.90;;;;;;5034089;28;20087;-81
2023/07/22 02:51:26;;;;;;;31.77;28.98;;;11.40;99.90;;;;;;5034007;28;20438;-82
2023/07/22 02:53:52;;;;;;;33.40;30.42;;;11.40;99.90;;;;;;5015607;28;20498;-80
2023/07/22 02:56:17;;;;;;;39.53;36.17;;;11.40;99.90;;;;;;5016332;28;20099;-81
2023/07/22 02:58:43;;;;;;;33.95;31.00;;;11.40;99.90;;;;;;5032530;28;20084;-81
2023/07/22 03:01:10;;;;;;;38.53;35.30;;;11.80;99.90;;;;;;5032833;28;20050;-81
2023/07/22 03:03:36;;;;;;;36.17;33.17;;;11.30;99.90;;;;;;5033916;28;20041;-81
2023/07/22 03:06:03;;;;;;;37.10;34.05;;;11.30;99.90;;;;;;5016189;28;20038;-81
2023/07/22 03:08:29;;;;;;;30.85;28.17;;;11.30;99.90;;;;;;5015434;28;20610;-81
2023/07/22 03:10:55;;;;;;;34.75;31.85;;;11.30;99.90;;;;;;5032627;28;20113;-82
2023/07/22 03:13:21;;;;;;;36.05;32.83;;;11.80;99.90;;;;;;5032226;28;20045;-81
2023/07/22 03:15:46;;;;;;;30.77;27.85;;;11.20;99.90;;;;;;5032141;28;20037;-81
2023/07/22 03:18:12;;;;;;;37.00;34.00;;;11.20;99.90;;;;;;5032214;28;20115;-81
2023/07/22 03:20:39;;;;;;;35.58;32.63;;;11.20;99.90;;;;;;5015881;28;20124;-81
2023/07/22 03:23:06;;;;;;;44.45;41.00;;;11.10;99.90;;;;;;5031549;28;20124;-81
2023/07/22 03:25:32;;;;;;;36.35;33.40;;;11.20;99.90;;;;;;5032022;28;20049;-81
2023/07/22 03:28:03;;;;;;;37.75;34.60;;;11.10;99.90;;;;;;5032222;28;20037;-81
2023/07/22 03:30:29;;;;;;;43.22;39.60;;;11.10;99.90;;;;;;5032290;28;20467;-81
2023/07/22 03:32:55;;;;;;;45.70;42.13;;;11.10;99.90;;;;;;5015485;28;20072;-81
2023/07/22 03:35:21;;;;;;;41.67;38.25;;;11.20;99.90;;;;;;5031836;28;20451;-81
2023/07/22 03:37:46;;;;;;;39.15;35.95;;;11.20;99.90;;;;;;5014846;28;20041;-81
2023/07/22 03:40:26;;;;;;;37.97;34.47;;;11.20;99.90;;;;;;5033170;28;20544;-81
2023/07/22 03:42:53;;;;;;;45.15;41.00;;;11.20;99.90;;;;;;5015537;28;20030;-81
2023/07/22 03:45:20;;;;;;;41.65;37.97;;;11.30;99.90;;;;;;5031801;28;20037;-81
2023/07/22 03:47:47;;;;;;;33.58;30.70;;;11.30;99.90;;;;;;5015265;28;20091;-81
2023/07/22 03:50:12;;;;;;;37.13;34.15;;;11.30;99.90;;;;;;5015072;28;20479;-81
2023/07/22 03:52:38;;;;;;;37.45;34.20;;;11.30;99.90;;;;;;5030891;28;20104;-81
2023/07/22 03:55:05;;;;;;;39.55;36.40;;;11.40;99.90;;;;;;5031636;28;20120;-81
2023/07/22 03:57:31;;;;;;;36.53;33.45;;;11.50;99.90;;;;;;5031659;28;20046;-81
2023/07/22 03:59:57;;;;;;;35.70;32.63;;;11.50;99.90;;;;;;5032738;28;20037;-81
2023/07/22 04:02:24;;;;;;;30.83;28.00;;;11.60;99.90;;;;;;5015124;28;20083;-81
2023/07/22 04:04:55;;;;;;;35.25;32.30;;;11.80;99.90;;;;;;5032765;28;20049;-81
2023/07/22 04:07:21;;;;;;;36.88;33.85;;;11.90;99.90;;;;;;5014341;28;20050;-81
2023/07/22 04:09:47;;;;;;;32.85;30.13;;;12.00;99.90;;;;;;5031409;28;20120;-81
2023/07/22 04:12:13;;;;;;;35.05;32.30;;;12.10;99.90;;;;;;5031196;28;20029;-81
2023/07/22 04:14:39;;;;;;;33.63;30.63;;;12.20;99.90;;;;;;5014553;28;20496;-81
2023/07/22 04:17:05;;;;;;;37.58;34.45;;;12.30;99.90;;;;;;5031029;28;20124;-81
2023/07/22 04:19:31;;;;;;;32.30;29.63;;;12.30;99.90;;;;;;5014604;28;20120;-81
2023/07/22 04:21:57;;;;;;;31.33;28.45;;;12.50;99.90;;;;;;5030502;28;20034;-81
2023/07/22 04:24:22;;;;;;;38.55;35.20;;;12.40;99.90;;;;;;5014528;28;20394;-81
2023/07/22 04:26:48;;;;;;;34.78;31.77;;;12.50;99.90;;;;;;5030284;28;20045;-81
2023/07/22 04:29:14;;;;;;;37.47;34.38;;;12.50;99.90;;;;;;5030987;28;20091;-81
2023/07/22 04:31:40;;;;;;;33.45;30.52;;;12.80;99.90;;;;;;5032108;28;20177;-81
2023/07/22 04:34:06;;;;;;;44.58;40.92;;;12.50;99.90;;;;;;5030705;28;20045;-81
2023/07/22 04:36:32;;;;;;;33.55;30.55;;;12.50;99.90;;;;;;5013885;28;20037;-81
2023/07/22 04:38:57;;;;;;;38.33;34.90;;;12.60;99.90;;;;;;5031057;28;20033;-81
2023/07/22 04:41:23;;;;;;;31.10;28.10;;;12.60;99.90;;;;;;5030632;28;20042;-81
2023/07/22 04:43:50;;;;;;;32.72;29.83;;;12.70;99.90;;;;;;5030667;28;20403;-81
2023/07/22 04:46:16;;;;;;;22.70;20.45;;;12.70;99.90;;;;;;5030682;28;20041;-81
2023/07/22 04:48:42;;;;;;;28.65;26.00;;;12.70;99.90;;;;;;5030883;28;20042;-81
2023/07/22 04:51:08;;;;;;;28.13;25.55;;;12.80;99.90;;;;;;5013629;28;20099;-81
2023/07/22 04:53:33;;;;;;;34.97;31.85;;;12.80;99.90;;;;;;5030749;28;20049;-81
2023/07/22 04:55:59;;;;;;;33.85;30.95;;;12.90;99.90;;;;;;5030464;28;20033;-80
2023/07/22 04:58:25;;;;;;;27.13;24.52;;;13.10;99.90;;;;;;5030742;28;20038;-80
2023/07/22 05:00:51;;;;;;;29.35;26.60;;;13.00;99.90;;;;;;5013860;28;20076;-81
2023/07/22 05:03:18;;;;;;;29.15;26.35;;;13.10;99.90;;;;;;5032072;28;20108;-80
2023/07/22 05:05:43;;;;;;;27.17;24.50;;;13.10;99.90;;;;;;5030274;28;20041;-81
2023/07/22 05:08:09;;;;;;;30.70;27.80;;;13.30;99.90;;;;;;5030620;28;20484;-80
2023/07/22 05:10:35;;;;;;;20.73;18.58;;;13.10;99.90;;;;;;5030382;28;20431;-81
2023/07/22 05:13:00;;;;;;;26.50;23.77;;;13.20;99.90;;;;;;5031617;28;20073;-81
2023/07/22 05:15:26;;;;;;;29.90;26.85;;;13.30;99.90;;;;;;5031386;28;20522;-81
2023/07/22 05:17:51;;;;;;;24.55;21.92;;;13.30;99.90;;;;;;5013334;28;20058;-81
2023/07/22 05:20:17;;;;;;;22.52;20.15;;;13.30;99.90;;;;;;5031866;28;20470;-81
2023/07/22 05:22:43;;;;;;;31.80;28.70;;;13.40;99.90;;;;;;5030204;28;20053;-81
2023/07/22 05:25:12;;;;;;;25.83;22.30;;;13.50;99.90;;;;;;5013887;28;20073;-81
2023/07/22 05:27:37;;;;;;;22.73;20.42;;;13.50;99.90;;;;;;5030075;28;20037;-81
2023/07/22 05:30:04;;;;;;;20.67;17.38;;;13.60;99.90;;;;;;5029986;28;20041;-81
2023/07/22 05:32:30;;;;;;;22.23;17.17;;;13.80;99.90;;;;;;5013493;28;20369;-81
2023/07/22 05:34:56;;;;;;;23.48;20.80;;;14.10;99.90;;;;;;5030055;28;20038;-81
2023/07/22 05:37:22;;;;;;;21.45;18.80;;;14.30;99.90;;;;;;5032215;28;20033;-81
2023/07/22 05:39:48;;;;;;;21.70;14.93;;;14.60;99.90;;;;;;5034259;28;20078;-81
2023/07/22 05:42:14;;;;;;;20.75;15.52;;;15.00;99.90;;;;;;5034107;28;20034;-81
2023/07/22 05:44:39;;;;;;;22.88;13.23;;;15.60;99.90;;;;;;5017574;28;20071;-81
2023/07/22 05:47:05;;;;;;;19.92;13.15;;;16.00;99.90;;;;;;5033906;28;20077;-81
2023/07/22 05:49:31;;;;;;;20.92;11.75;;;16.60;99.90;;;;;;5017360;28;20044;-81
2023/07/22 05:51:57;;;;;;;19.70;12.45;;;17.50;99.90;;;;;;5033807;28;20096;-81
2023/07/22 05:54:22;;;;;;;17.38;11.95;;;18.00;99.90;;;;;;5033909;28;20128;-81
2023/07/22 05:56:48;;;;;;;15.65;12.18;;;18.30;99.90;;;;;;5034933;28;20132;-81
2023/07/22 05:59:14;;;;;;;18.05;12.82;;;18.50;99.90;;;;;;5033595;28;20030;-81
2023/07/22 06:01:40;;;;;;;19.75;13.48;;;18.80;99.90;;;;;;5033480;28;20380;-82
2023/07/22 06:04:06;;;;;;;18.20;13.45;;;19.10;99.90;;;;;;5033788;28;20045;-82
2023/07/22 06:06:31;;;;;;;15.43;11.88;;;19.10;99.90;;;;;;5034823;28;20052;-81
2023/07/22 06:08:57;;;;;;;20.73;12.93;;;19.10;99.90;;;;;;5033633;28;20048;-81
2023/07/22 06:11:23;;;;;;;15.85;12.35;;;19.10;99.90;;;;;;5033480;28;20037;-81
2023/07/22 06:13:49;;;;;;;17.02;12.57;;;19.10;99.90;;;;;;5033423;28;20037;-82
2023/07/22 06:16:14;;;;;;;18.13;12.07;;;19.00;99.90;;;;;;5034403;28;20033;-81
2023/07/22 06:18:40;;;;;;;14.90;11.45;;;18.90;99.90;;;;;;5034651;28;20533;-81
2023/07/22 06:21:05;;;;;;;18.08;12.73;;;18.90;99.90;;;;;;5033298;28;20407;-81
2023/07/22 06:23:31;;;;;;;19.05;11.98;;;18.80;99.90;;;;;;5016780;28;20287;-81
2023/07/22 06:25:57;;;;;;;14.30;11.75;;;19.00;99.90;;;;;;5033287;28;20041;-82
2023/07/22 06:28:22;;;;;;;14.85;11.88;;;19.20;99.90;;;;;;5033093;28;20044;-81
2023/07/22 06:30:48;;;;;;;17.92;12.07;;;19.30;99.90;;;;;;5034131;28;20510;-82
2023/07/22 06:33:14;;;;;;;19.10;12.40;;;19.30;99.90;;;;;;5034641;28;20112;-81
2023/07/22 06:35:39;;;;;;;16.60;12.60;;;19.50;99.90;;;;;;5034316;28;20038;-81
2023/07/22 06:38:05;;;;;;;19.88;12.88;;;19.70;99.90;;;;;;5033037;28;20108;-82
2023/07/22 06:40:30;;;;;;;17.23;11.90;;;19.90;99.90;;;;;;5033356;28;20064;-81
2023/07/22 06:42:56;;;;;;;14.70;11.38;;;19.90;99.90;;;;;;5034546;28;20038;-82
2023/07/22 06:45:22;;;;;;;16.65;11.82;;;19.60;99.90;;;;;;5034064;28;20124;-82
2023/07/22 06:47:47;;;;;;;17.33;12.63;;;19.40;99.90;;;;;;5016473;28;20068;-82
2023/07/22 06:50:13;;;;;;;15.40;12.55;;;19.90;99.90;;;;;;5032455;28;20049;-82
2023/07/22 06:52:38;;;;;;;16.25;11.93;;;20.40;99.90;;;;;;5032833;28;20037;-82
2023/07/22 06:55:05;;;;;;;14.70;11.90;;;20.60;99.90;;;;;;5033954;28;20056;-82
2023/07/22 06:57:32;;;;;;;15.25;11.30;;;20.70;99.90;;;;;;5032665;28;20124;-82
2023/07/22 06:59:58;;;;;;;15.40;11.23;;;20.90;99.90;;;;;;5032397;28;20120;-82
2023/07/22 07:02:24;;;;;;;15.07;13.07;;;21.20;99.90;;;;;;5016421;28;20072;-82
2023/07/22 07:04:50;;;;;;;13.98;12.10;;;21.30;99.90;;;;;;5032849;28;20069;-82
2023/07/22 07:07:16;;;;;;;13.88;12.48;;;21.50;99.90;;;;;;5032932;28;20534;-82
2023/07/22 07:09:42;;;;;;;13.75;12.13;;;21.50;99.90;;;;;;5032482;28;20037;-81
2023/07/22 07:12:08;;;;;;;16.17;12.05;;;21.50;99.90;;;;;;5032503;28;20052;-82
2023/07/22 07:14:34;;;;;;;14.85;11.63;;;21.60;99.90;;;;;;5015440;28;20095;-82
2023/07/22 07:17:01;;;;;;;13.52;12.07;;;21.60;99.90;;;;;;5032302;28;20045;-82
2023/07/22 07:19:27;;;;;;;16.30;11.95;;;21.50;99.90;;;;;;5016006;28;20041;-82
2023/07/22 07:21:53;;;;;;;14.05;11.30;;;21.10;99.90;;;;;;5032219;28;20377;-82
2023/07/22 07:24:18;;;;;;;15.30;12.05;;;20.90;99.90;;;;;;5032124;28;20038;-82
2023/07/22 07:26:44;;;;;;;17.40;11.70;;;20.60;99.90;;;;;;5032174;28;20087;-82
2023/07/22 07:29:10;;;;;;;14.73;11.68;;;20.30;99.90;;;;;;5031770;28;20548;-82
2023/07/22 07:31:36;;;;;;;15.93;11.18;;;20.00;99.90;;;;;;5031938;28;20053;-82
2023/07/22 07:34:02;;;;;;;13.27;11.10;;;19.60;99.90;;;;;;5015719;28;20392;-82
2023/07/22 07:36:28;;;;;;;15.77;10.07;;;19.40;99.90;;;;;;5032066;28;20128;-81
2023/07/22 07:38:53;;;;;;;13.55;10.05;;;19.30;99.90;;;;;;5032037;28;20034;-81
2023/07/22 07:41:20;;;;;;;15.18;12.13;;;19.10;99.90;;;;;;5031961;28;20043;-81
2023/07/22 07:43:46;;;;;;;13.80;10.45;;;19.00;99.90;;;;;;5015388;28;20051;-82
2023/07/22 07:46:22;;;;;;;13.52;10.82;;;19.00;99.90;;;;;;5033397;28;20475;-82
2023/07/22 07:48:49;;;;;;;12.77;11.32;;;19.30;99.90;;;;;;5031970;28;20037;-82
2023/07/22 07:51:16;;;;;;;13.07;10.35;;;19.40;99.90;;;;;;5032071;28;20452;-83
2023/07/22 07:53:43;;;;;;;12.98;10.23;;;19.90;99.90;;;;;;5031494;28;20037;-81
2023/07/22 07:56:10;;;;;;;16.55;11.77;;;20.40;99.90;;;;;;5015465;28;20086;-82
2023/07/22 07:58:36;;;;;;;14.68;11.73;;;21.10;99.90;;;;;;5031232;28;20116;-83
2023/07/22 08:01:02;;;;;;;14.90;13.40;;;21.60;99.90;;;;;;5030946;28;20158;-83
2023/07/22 08:03:28;;;;;;;15.43;13.82;;;22.20;99.90;;;;;;5031597;28;20073;-82
2023/07/22 08:05:53;;;;;;;14.73;13.35;;;22.60;99.90;;;;;;5032742;28;20124;-82
2023/07/22 08:08:20;;;;;;;15.60;14.00;;;22.80;99.90;;;;;;5015044;28;20037;-82
2023/07/22 08:10:45;;;;;;;12.88;11.65;;;22.90;99.90;;;;;;5014931;28;20045;-82
2023/07/22 08:13:11;;;;;;;14.25;10.05;;;23.10;99.90;;;;;;5031064;28;20045;-82
2023/07/22 08:15:37;;;;;;;11.35;10.18;;;23.10;99.90;;;;;;5014769;28;20495;-81
2023/07/22 08:18:03;;;;;;;12.38;7.13;;;23.20;99.90;;;;;;5031327;28;20057;-82
2023/07/22 08:20:30;;;;;;;11.98;10.77;;;23.30;99.90;;;;;;5014778;28;20049;-82
2023/07/22 08:22:56;;;;;;;11.30;9.85;;;23.30;99.90;;;;;;5014805;28;20041;-82
2023/07/22 08:25:22;;;;;;;13.07;11.80;;;23.00;99.90;;;;;;5032507;28;20045;-82
2023/07/22 08:27:47;;;;;;;12.57;10.55;;;22.70;99.90;;;;;;5014034;28;20048;-82
2023/07/22 08:30:13;;;;;;;11.73;10.63;;;22.60;99.90;;;;;;5031436;28;20037;-82
2023/07/22 08:32:38;;;;;;;10.80;8.18;;;22.40;99.90;;;;;;5031168;28;20037;-82
2023/07/22 08:35:05;;;;;;;9.40;7.05;;;22.40;99.90;;;;;;5030970;28;20263;-82
2023/07/22 08:37:31;;;;;;;8.52;6.43;;;22.30;99.90;;;;;;5031169;28;20045;-82
2023/07/22 08:39:57;;;;;;;9.55;6.97;;;22.40;99.90;;;;;;5014404;28;20048;-82
2023/07/22 08:42:25;;;;;;;8.70;6.38;;;22.40;99.90;;;;;;5031496;28;20042;-82
2023/07/22 08:44:57;;;;;;;9.52;6.20;;;22.70;99.90;;;;;;5031077;28;20044;-82
2023/07/22 08:47:28;;;;;;;7.60;5.95;;;23.00;99.90;;;;;;5032196;28;20044;-84
2023/07/22 08:49:58;;;;;;;9.55;6.93;;;23.20;99.90;;;;;;5030937;28;20034;-82
2023/07/22 08:52:24;;;;;;;7.25;6.05;;;23.10;99.90;;;;;;5030593;28;20550;-82
2023/07/22 08:54:50;;;;;;;6.22;5.30;;;22.90;99.90;;;;;;5030734;28;20137;-82
2023/07/22 08:57:17;;;;;;;10.55;6.70;;;22.90;99.90;;;;;;5030238;28;20037;-82
2023/07/22 08:59:44;;;;;;;8.70;6.90;;;22.60;99.90;;;;;;5030626;28;20033;-82
2023/07/22 09:02:13;;;;;;;10.43;6.63;;;22.40;99.90;;;;;;5032179;28;20036;-82
2023/07/22 09:04:40;;;;;;;11.60;6.80;;;22.40;99.90;;;;;;5031670;28;20411;-82
2023/07/22 09:07:07;;;;;;;9.35;7.28;;;22.50;99.90;;;;;;5030913;28;20053;-82
2023/07/22 09:09:34;;;;;;;12.07;8.75;;;22.20;99.90;;;;;;5014517;28;20399;-82
2023/07/22 09:12:01;;;;;;;11.50;8.07;;;21.90;99.90;;;;;;5013310;28;20045;-82
2023/07/22 09:14:30;;;;;;;12.00;8.20;;;21.70;99.90;;;;;;5031730;28;20046;-82
2023/07/22 09:16:59;;;;;;;13.68;10.50;;;21.40;99.90;;;;;;5030408;28;20383;-82
2023/07/22 09:19:25;;;;;;;16.67;12.35;;;21.30;99.90;;;;;;5031677;28;20054;-82
2023/07/22 09:21:51;;;;;;;14.50;9.55;;;21.00;99.90;;;;;;5030179;28;20045;-82
2023/07/22 09:24:22;;;;;;;14.60;12.02;;;20.70;99.90;;;;;;5013936;28;20034;-81
2023/07/22 09:26:48;;;;;;;16.38;13.90;;;20.60;99.90;;;;;;5030252;28;20484;-81
2023/07/22 09:29:14;;;;;;;15.93;13.65;;;20.40;99.90;;;;;;5030074;28;20045;-81
2023/07/22 09:31:54;;;;;;;13.25;9.73;;;20.20;99.90;;;;;;5013560;28;20038;-81
2023/07/22 09:34:19;;;;;;;14.77;13.05;;;20.10;99.90;;;;;;5031790;28;20084;-81
2023/07/22 09:36:52;;;;;;;14.52;11.35;;;20.10;99.90;;;;;;5031329;28;20471;-81
2023/07/22 09:39:18;;;;;;;11.82;8.93;;;20.00;99.90;;;;;;5030991;28;20112;-81
2023/07/22 09:41:44;;;;;;;15.48;12.10;;;20.00;99.90;;;;;;5030199;28;20092;-81
2023/07/22 09:44:10;;;;;;;16.40;9.80;;;20.00;99.90;;;;;;5029978;28;20578;-81
2023/07/22 09:46:36;;;;;;;14.15;11.18;;;20.10;99.90;;;;;;5031278;28;20144;-81
2023/07/22 09:49:07;;;;;;;13.65;12.23;;;20.10;99.90;;;;;;5030653;28;20041;-81
2023/07/22 09:51:38;;;;;;;13.05;9.60;;;20.50;99.90;;;;;;5013554;28;20037;-81
2023/07/22 09:54:05;;;;;;;12.75;9.95;;;20.60;99.90;;;;;;5012933;28;20068;-81
2023/07/22 09:56:31;;;;;;;15.13;10.48;;;20.70;99.90;;;;;;5029857;28;20041;-81
2023/07/22 09:59:05;;;;;;;13.77;10.98;;;20.80;99.90;;;;;;5029956;28;20030;-81
2023/07/22 10:01:32;;;;;;;12.40;8.95;;;21.10;99.90;;;;;;5029821;28;20045;-81
2023/07/22 10:03:59;;;;;;;17.80;10.35;;;21.30;99.90;;;;;;5029828;28;20041;-81
2023/07/22 10:06:28;;;;;;;14.60;9.48;;;21.20;99.90;;;;;;5029958;28;20056;-81
2023/07/22 10:09:07;;;;;;;12.75;10.48;;;21.10;99.90;;;;;;5012797;28;20076;-81
2023/07/22 10:11:33;;;;;;;10.57;7.32;;;21.00;99.90;;;;;;5029952;28;20107;-81
2023/07/22 10:14:00;;;;;;;10.55;7.70;;;21.00;99.90;;;;;;5013182;28;20041;-81
2023/07/22 10:16:26;;;;;;;7.82;6.43;;;21.00;99.90;;;;;;5029834;28;20042;-81
2023/07/22 10:18:54;;;;;;;7.82;6.53;;;20.90;99.90;;;;;;5013262;28;20111;-81
2023/07/22 10:21:20;;;;;;;10.20;6.28;;;20.90;99.90;;;;;;5013195;28;20037;-82
2023/07/22 10:23:48;;;;;;;7.97;6.30;;;20.80;99.90;;;;;;5031018;28;20274;-81
2023/07/22 10:26:17;;;;;;;7.88;6.22;;;20.70;99.90;;;;;;5033200;28;20044;-82
2023/07/22 10:28:47;;;;;;;7.05;5.53;;;20.60;99.90;;;;;;5016750;28;20084;-81
2023/07/22 10:31:14;;;;;;;7.75;5.85;;;20.60;99.90;;;;;;5034684;28;20088;-81
2023/07/22 10:33:40;;;;;;;7.53;5.75;;;20.60;99.90;;;;;;5033239;28;20041;-81
2023/07/22 10:36:08;;;;;;;9.07;5.88;;;20.50;99.90;;;;;;5016753;28;20041;-82
2023/07/22 10:38:35;;;;;;;8.05;5.85;;;20.50;99.90;;;;;;5016012;28;20130;-82
2023/07/22 10:41:10;;;;;;;9.07;6.35;;;20.50;99.90;;;;;;5032950;28;20049;-82
2023/07/22 10:43:36;;;;;;;7.75;6.65;;;20.40;99.90;;;;;;5032998;28;20048;-82
2023/07/22 10:46:08;;;;;;;9.40;8.40;;;20.30;99.90;;;;;;5034481;28;20038;-81
2023/07/22 10:48:37;;;;;;;10.30;6.97;;;20.30;99.90;;;;;;5033246;28;20046;-81
2023/07/22 10:51:07;;;;;;;10.05;6.82;;;20.30;99.90;;;;;;5032596;28;20124;-81
2023/07/22 10:53:32;;;;;;;8.50;7.03;;;20.20;99.90;;;;;;5032301;28;20053;-81
2023/07/22 10:56:06;;;;;;;12.57;9.25;;;20.20;99.90;;;;;;5016126;28;20033;-81
2023/07/22 10:58:33;;;;;;;11.38;8.20;;;20.40;99.90;;;;;;5032695;28;20064;-81
2023/07/22 11:01:29;;;;;;;8.23;6.85;;;20.20;99.90;;;;;;5016065;28;20061;-81
2023/07/22 11:04:18;;;;;;;9.88;8.13;;;20.30;99.90;;;;;;5032553;28;20049;-81
2023/07/22 11:06:43;;;;;;;13.82;12.23;;;20.20;99.90;;;;;;5015438;28;20099;-81
2023/07/22 11:09:33;;;;;;;15.48;13.35;;;20.00;99.90;;;;;;5032564;28;20045;-81
2023/07/22 11:12:17;;;;;;;14.52;12.20;;;19.70;99.90;;;;;;5023764;28;20057;-80
2023/07/22 11:15:14;;;;;;;14.20;11.23;;;19.60;99.90;;;;;;5033581;28;20372;-80
2023/07/22 11:17:40;;;;;;;13.55;12.05;;;19.40;99.90;;;;;;5025313;28;20080;-80
2023/07/22 11:20:06;;;;;;;15.18;11.45;;;19.50;99.90;;;;;;5032298;28;20579;-80
2023/07/22 11:22:31;;;;;;;13.55;11.90;;;19.50;99.90;;;;;;5031657;28;20499;-80
2023/07/22 11:25:00;;;;;;;15.00;12.25;;;19.40;99.90;;;;;;5032250;28;20121;-80
2023/07/22 11:27:26;;;;;;;15.50;11.27;;;19.30;99.90;;;;;;5032124;28;20044;-80
2023/07/22 11:29:51;;;;;;;14.32;11.70;;;19.30;99.90;;;;;;5032127;28;20041;-80
2023/07/22 11:32:21;;;;;;;15.80;11.95;;;19.40;99.90;;;;;;5033151;28;20049;-80
2023/07/22 11:34:46;;;;;;;14.48;11.75;;;19.40;99.90;;;;;;5033158;28;20052;-80
2023/07/22 11:37:13;;;;;;;16.90;12.27;;;19.40;99.90;;;;;;5031382;28;20033;-80
2023/07/22 11:39:41;;;;;;;14.25;11.80;;;19.40;99.90;;;;;;5015256;28;20041;-79
2023/07/22 11:42:07;;;;;;;14.70;11.68;;;19.40;99.90;;;;;;5031977;28;20064;-80
2023/07/22 11:44:33;;;;;;;12.85;10.50;;;19.30;99.90;;;;;;5032956;28;20488;-80
2023/07/22 11:47:07;;;;;;;16.63;13.18;;;19.20;99.90;;;;;;5032864;28;20048;-80
2023/07/22 11:49:38;;;;;;;20.23;12.55;;;19.00;99.90;;;;;;5031168;28;20124;-80
2023/07/22 11:52:17;;;;;;;14.00;11.80;;;18.90;99.90;;;;;;5032990;28;20056;-80
2023/07/22 11:54:45;;;;;;;15.02;11.05;;;18.80;99.90;;;;;;5032666;28;20488;-79
2023/07/22 11:57:13;;;;;;;17.55;12.68;;;18.80;99.90;;;;;;5031477;28;20076;-80
2023/07/22 11:59:43;;;;;;;15.23;11.85;;;18.70;99.90;;;;;;5031447;28;20057;-79
2023/07/22 12:02:13;;;;;;;15.43;11.52;;;18.60;99.90;;;;;;5031425;28;20044;-80
2023/07/22 12:04:39;;;;;;;15.00;11.68;;;18.60;99.90;;;;;;5031245;28;20084;-80
2023/07/22 12:07:05;;;;;;;17.27;12.57;;;18.60;99.90;;;;;;5014801;28;20037;-80
2023/07/22 12:09:31;;;;;;;14.07;10.43;;;18.50;99.90;;;;;;5031290;28;20095;-80
2023/07/22 12:11:59;;;;;;;17.48;11.75;;;18.50;99.90;;;;;;5031190;28;20052;-80
2023/07/22 12:14:32;;;;;;;14.85;11.98;;;18.50;99.90;;;;;;5032542;28;20041;-80
2023/07/22 12:16:58;;;;;;;;;;;18.50;99.90;;;;;;5031332;28;20124;-81
2023/07/22 12:19:24;;;;;;;17.17;11.18;;;18.50;99.90;;;;;;5031953;28;20015;-81
2023/07/22 12:21:49;;;;;;;14.10;11.25;;;18.50;99.90;;;;;;5030904;28;20034;-81
2023/07/22 12:24:15;;;;;;;13.63;11.68;;;18.40;99.90;;;;;;5031007;28;20044;-81
2023/07/22 12:26:41;;;;;;;11.27;9.52;;;18.50;99.90;;;;;;5032075;28;20127;-80
2023/07/22 12:29:08;;;;;;;12.98;10.63;;;18.50;99.90;;;;;;5030777;28;20034;-80